Архив погоды в Темникове

Метеограмма Темников
Четверг, 19 Сентября
Время местн. Темп Ветер Видим Явления Облачность нижн/средн/верх Атм. давл. Влжн Точка росы ВНГО R Сост. почвы Tg s
Напр Скр Прв ур.ст ур.м изм
15:00 +11.6° З,С-З 4 9 20 км - облачно с прояснениями 744 756 +1.8 56% +3.1° 600 м - - - -
12:00 +11.4° З 5 10 20 км - преимущественно облачно 742 755 +2 64% +4.8° 600 м - - - -
09:00 +8.6° З 3 6 20 км - облачно 740 753 +2.6 83% +5.9° 1 км - - - -
06:00 +6.4° З,С-З 3 6 4 км дымка облачно 738 750 +2.2 91% +5° 1 км - Влажная (без луж) - -
03:00 +5.7° З,С-З 2 4 4 км дымка облачно 736 748 +0.7 93% +4.7° 1 км - - - -
00:00 +6.2° З,С-З 1 1 4 км дымка облачно 735 747 -1.4 93% +5.1° 1 км - - - -
Среда, 18 Сентября
Время местн. Темп Ветер Видим Явления Облачность нижн/средн/верх Атм. давл. Влжн Точка росы ВНГО R Сост. почвы Tg s
Напр Скр Прв ур.ст ур.м изм
21:00 +7.9° штиль 0 0 10 км небо без изменений {ливневые осадки} облачно 736 749 -1 89% +6.2° 1 км - - - -
18:00 +10.4° С-З 1 2 4 км слабый ливневый дождь преимущественно облачно 737 750 -1 75% +6.2° 600 м - - - -
15:00 +13.3° З 3 6 20 км - облачно с прояснениями 738 750 -1 50% +3.1° 600 м - - - -
12:00 +11.6° Ю-З 2 4 20 км - облачно с прояснениями 739 751 -0.1 65% +5.2° 1 км - - - -
09:00 +7.6° Ю-З 3 5 20 км - облачно с прояснениями 739 752 +0.3 78% +4° 1 км - - - -
06:00 +4° З,Ю-З 2 4 20 км - переменная облачность 739 752 +0.3 90% +2.5° 1 км - Влажная (без луж) - -
03:00 +5.3° З,Ю-З 2 5 20 км - переменная облачность 739 751 +0.3 86% +3.1° 1 км - - - -
00:00 +6.2° З,Ю-З 2 3 10 км - переменная облачность 738 751 +0.1 80% +3° - - - - -
Вторник, 17 Сентября
Время местн. Темп Ветер Видим Явления Облачность нижн/средн/верх Атм. давл. Влжн Точка росы ВНГО R Сост. почвы Tg s
Напр Скр Прв ур.ст ур.м изм
21:00 +6.7° З,Ю-З 1 3 10 км - переменная облачность 738 751 +0.7 78% +3.1° - - - - -
18:00 +12.3° З,С-З 3 9 20 км - облачно с прояснениями 738 750 +0.5 51% +2.5° 1 км 0 - - -
15:00 +13.5° Ю-З 3 6 20 км ливневый дождь переменная облачность 737 749 -0.1 58% +5.4° 600 м - - - -
12:00 +14.8° З,Ю-З 4 7 20 км - облачно с прояснениями 737 749 -0.5 59% +6.9° 600 м - - - -
09:00 +9.9° Ю-З 3 7 20 км - облачно 738 750 +0.2 78% +6.2° 1 км - - - -
06:00 +7.7° Ю-З 2 4 20 км - облачно 738 750 -0.2 88% +5.8° 1 км - Влажная (без луж) - -
03:00 +7.8° Ю-З 2 3 10 км - ясно 738 750 -0.4 87% +5.8° более 2.5 км - - - -
00:00 +8.8° Ю-З 2 4 10 км - переменная облачность 738 751 -0.5 86% +6.6° 1 км - - - -
Понедельник, 16 Сентября
Время местн. Темп Ветер Видим Явления Облачность нижн/средн/верх Атм. давл. Влжн Точка росы ВНГО R Сост. почвы Tg s
Напр Скр Прв ур.ст ур.м изм
21:00 +9.1° Ю-З 2 3 10 км небо без изменений {дождь} переменная облачность 739 751 +0.5 88% +7.2° 1 км - - - -
18:00 +10.8° З,Ю-З 3 7 4 км слабый непрерывный дождь облачно 738 751 0 85% +8.4° 600 м - - - -
15:00 +10.7° З,Ю-З 3 5 20 км небо без изменений {дождь} облачно 738 751 -0.5 87% +8.6° 600 м - - - -
12:00 +10.3° Ю-З 4 10 20 км - облачно 739 751 -1.5 88% +8.4° 1 км - - - -